Time;durP1;ratioP1;P1;durP2;ratioP2;P2;SDS_P1;SDS_P2;PMS_P1;PMS_P2;Temp;Humidity;BMP_temperature;BMP_pressure;BME280_temperature;BME280_humidity;BME280_pressure;Samples;Min_cycle;Max_cycle;Signal;HPM_P1;HPM_P2
2023/09/05 00:00:18;;;;;;;18.17;15.07;;;16.20;99.90;;;;;;4990972;28;20627;-70
2023/09/05 00:02:48;;;;;;;18.00;13.82;;;16.20;99.90;;;;;;4993295;28;20707;-69
2023/09/05 00:05:15;;;;;;;18.90;14.65;;;16.20;99.90;;;;;;4990431;28;20601;-71
2023/09/05 00:07:41;;;;;;;16.92;14.52;;;16.10;99.90;;;;;;4988237;28;20224;-69
2023/09/05 00:10:09;;;;;;;17.95;14.40;;;16.10;99.90;;;;;;5008728;28;20288;-70
2023/09/05 00:12:35;;;;;;;21.63;14.77;;;16.10;99.90;;;;;;4993066;28;20178;-71
2023/09/05 00:15:02;;;;;;;20.67;14.35;;;16.00;99.90;;;;;;4990649;28;20186;-71
2023/09/05 00:17:28;;;;;;;18.80;14.18;;;16.00;99.90;;;;;;4993047;28;20217;-71
2023/09/05 00:19:55;;;;;;;19.08;14.38;;;16.00;99.90;;;;;;4993527;28;20212;-70
2023/09/05 00:22:23;;;;;;;17.20;14.27;;;15.90;99.90;;;;;;4994198;28;20181;-72
2023/09/05 00:24:49;;;;;;;20.40;14.98;;;15.90;99.90;;;;;;4993704;28;20281;-72
2023/09/05 00:27:15;;;;;;;18.27;14.93;;;15.90;99.90;;;;;;4987657;28;20274;-71
2023/09/05 00:29:42;;;;;;;17.58;14.82;;;15.90;99.90;;;;;;4991893;28;20192;-71
2023/09/05 00:32:09;;;;;;;18.23;14.48;;;15.90;99.90;;;;;;5009966;28;20212;-71
2023/09/05 00:34:37;;;;;;;19.40;14.55;;;15.90;99.90;;;;;;4986298;28;20581;-71
2023/09/05 00:37:07;;;;;;;18.40;13.52;;;15.80;99.90;;;;;;5025318;28;20664;-72
2023/09/05 00:39:34;;;;;;;20.05;14.95;;;15.80;99.90;;;;;;4987476;28;20232;-72
2023/09/05 00:42:03;;;;;;;25.08;14.90;;;15.80;99.90;;;;;;4987950;28;20684;-71
2023/09/05 00:44:29;;;;;;;20.40;14.50;;;15.90;99.90;;;;;;5001601;28;20243;-72
2023/09/05 00:46:58;;;;;;;17.77;14.80;;;15.80;99.90;;;;;;4992520;28;20220;-71
2023/09/05 00:49:27;;;;;;;20.90;14.88;;;15.90;99.90;;;;;;4987915;28;20264;-71
2023/09/05 00:51:58;;;;;;;19.70;15.02;;;15.90;99.90;;;;;;4989308;28;20235;-73
2023/09/05 00:54:25;;;;;;;20.65;15.27;;;15.90;99.90;;;;;;5001207;28;20192;-70
2023/09/05 00:56:52;;;;;;;20.70;14.95;;;15.90;99.90;;;;;;4984496;28;20203;-70
2023/09/05 00:59:19;;;;;;;21.30;15.10;;;16.00;99.90;;;;;;5019224;28;20583;-71
2023/09/05 01:01:45;;;;;;;21.73;15.45;;;16.00;99.90;;;;;;4988764;28;20193;-72
2023/09/05 01:04:13;;;;;;;18.48;15.38;;;16.00;99.90;;;;;;4987174;28;20182;-69
2023/09/05 01:06:48;;;;;;;20.25;15.23;;;16.00;99.90;;;;;;4993976;28;20235;-70
2023/09/05 01:09:18;;;;;;;19.00;15.07;;;16.00;99.90;;;;;;4987294;28;20188;-69
2023/09/05 01:11:45;;;;;;;22.23;16.10;;;16.00;99.90;;;;;;4993257;28;20177;-72
2023/09/05 01:14:11;;;;;;;19.30;15.38;;;16.10;99.90;;;;;;4971833;28;20272;-70
2023/09/05 01:16:43;;;;;;;18.05;15.00;;;16.10;99.90;;;;;;4992661;28;20283;-71
2023/09/05 01:19:12;;;;;;;21.52;15.70;;;16.10;99.90;;;;;;4990409;28;20208;-71
2023/09/05 01:21:45;;;;;;;19.20;15.30;;;16.00;99.90;;;;;;4992757;28;20251;-70
2023/09/05 01:24:22;;;;;;;19.48;15.30;;;16.00;99.90;;;;;;4988115;28;20208;-70
2023/09/05 01:26:51;;;;;;;19.55;15.43;;;16.00;99.90;;;;;;5015249;28;20545;-70
2023/09/05 01:29:26;;;;;;;18.15;15.70;;;16.00;99.90;;;;;;4990110;28;20190;-71
2023/09/05 01:31:54;;;;;;;19.88;15.75;;;16.00;99.90;;;;;;4992818;28;20212;-70
2023/09/05 01:34:20;;;;;;;21.83;16.02;;;16.00;99.90;;;;;;4988564;28;20209;-71
2023/09/05 01:36:46;;;;;;;20.75;17.05;;;16.00;99.90;;;;;;4993198;28;20695;-70
2023/09/05 01:39:11;;;;;;;20.95;16.35;;;15.90;99.90;;;;;;5016133;28;20245;-71
2023/09/05 01:41:37;;;;;;;20.55;16.10;;;15.90;99.90;;;;;;4992306;28;20193;-71
2023/09/05 01:44:03;;;;;;;22.00;16.75;;;15.90;99.90;;;;;;4988369;28;20264;-71
2023/09/05 01:46:29;;;;;;;20.45;16.25;;;15.90;99.90;;;;;;4984211;28;20773;-70
2023/09/05 01:48:55;;;;;;;21.25;16.70;;;15.90;99.90;;;;;;4985354;28;20285;-71
2023/09/05 01:51:21;;;;;;;19.30;16.52;;;15.80;99.90;;;;;;5024296;28;20189;-71
2023/09/05 01:53:47;;;;;;;20.80;16.52;;;15.80;99.90;;;;;;5018014;28;20192;-71
2023/09/05 01:56:13;;;;;;;19.38;16.85;;;15.80;99.90;;;;;;4974832;28;20189;-71
2023/09/05 01:58:39;;;;;;;23.00;16.35;;;15.80;99.90;;;;;;4969581;28;20693;-72
2023/09/05 02:01:05;;;;;;;21.00;16.13;;;15.80;99.90;;;;;;4975487;28;20189;-71
2023/09/05 02:03:31;;;;;;;20.25;16.58;;;15.80;99.90;;;;;;4986764;28;20566;-70
2023/09/05 02:05:57;;;;;;;25.25;16.98;;;15.80;99.90;;;;;;4990221;28;20189;-69
2023/09/05 02:08:23;;;;;;;21.13;15.73;;;15.80;99.90;;;;;;4984056;28;20607;-68
2023/09/05 02:10:49;;;;;;;21.42;16.85;;;15.70;99.90;;;;;;5020624;28;20201;-69
2023/09/05 02:13:17;;;;;;;21.23;15.88;;;15.70;99.90;;;;;;4987519;28;20618;-68
2023/09/05 02:15:43;;;;;;;20.73;16.65;;;15.70;99.90;;;;;;4990943;28;20188;-69
2023/09/05 02:18:13;;;;;;;25.52;16.08;;;15.70;99.90;;;;;;4987489;28;20272;-70
2023/09/05 02:20:40;;;;;;;19.83;17.15;;;15.70;99.90;;;;;;4990295;28;20303;-68
2023/09/05 02:23:07;;;;;;;20.83;16.10;;;15.70;99.90;;;;;;4990821;28;20193;-70
2023/09/05 02:25:33;;;;;;;20.10;15.52;;;15.70;99.90;;;;;;4991524;28;20200;-70
2023/09/05 02:27:59;;;;;;;19.15;16.40;;;15.60;99.90;;;;;;4986450;28;20181;-70
2023/09/05 02:30:29;;;;;;;24.60;17.45;;;15.60;99.90;;;;;;4989259;28;20209;-71
2023/09/05 02:32:56;;;;;;;20.23;16.63;;;15.60;99.90;;;;;;5022492;28;20256;-70
2023/09/05 02:35:23;;;;;;;20.38;17.38;;;15.60;99.90;;;;;;4986276;28;20653;-69
2023/09/05 02:37:50;;;;;;;21.52;16.48;;;15.60;99.90;;;;;;4990091;28;20208;-69
2023/09/05 02:40:17;;;;;;;22.75;16.85;;;15.60;99.90;;;;;;4987973;28;20200;-69
2023/09/05 02:42:43;;;;;;;19.40;16.85;;;15.60;99.90;;;;;;5005662;28;20256;-70
2023/09/05 02:45:12;;;;;;;19.88;17.10;;;15.60;99.90;;;;;;4988144;28;20221;-69
2023/09/05 02:47:38;;;;;;;23.17;16.15;;;15.60;99.90;;;;;;4990259;28;22658;-69
2023/09/05 02:50:05;;;;;;;22.48;17.25;;;15.60;99.90;;;;;;4984831;28;20211;-70
2023/09/05 02:52:34;;;;;;;22.85;16.80;;;15.60;99.90;;;;;;4990378;28;20252;-70
2023/09/05 02:55:03;;;;;;;24.08;17.58;;;15.50;99.90;;;;;;5021273;28;20280;-70
2023/09/05 02:57:29;;;;;;;24.15;17.20;;;15.50;99.90;;;;;;4990770;28;20418;-70
2023/09/05 02:59:55;;;;;;;25.08;17.08;;;15.50;99.90;;;;;;4990185;28;20185;-69
2023/09/05 03:02:25;;;;;;;21.20;17.05;;;15.50;99.90;;;;;;5022928;28;20265;-70
2023/09/05 03:04:54;;;;;;;21.25;17.00;;;15.50;99.90;;;;;;4983777;28;20201;-69
2023/09/05 03:07:23;;;;;;;23.10;17.98;;;15.50;99.90;;;;;;4991122;28;20320;-70
2023/09/05 03:09:52;;;;;;;23.73;17.52;;;15.40;99.90;;;;;;4983373;28;20186;-72
2023/09/05 03:12:20;;;;;;;20.25;16.70;;;15.50;99.90;;;;;;5014337;28;20185;-69
2023/09/05 03:14:46;;;;;;;23.10;17.27;;;15.50;99.90;;;;;;4987047;28;20274;-70
2023/09/05 03:17:12;;;;;;;19.75;17.13;;;15.50;99.90;;;;;;4985141;28;20598;-69
2023/09/05 03:19:40;;;;;;;21.95;17.55;;;15.50;99.90;;;;;;4985321;28;20225;-70
2023/09/05 03:22:06;;;;;;;20.65;17.02;;;15.40;99.90;;;;;;4988475;28;20185;-69
2023/09/05 03:24:34;;;;;;;22.00;17.85;;;15.40;99.90;;;;;;4985341;28;20190;-69
2023/09/05 03:27:00;;;;;;;23.42;17.13;;;15.40;99.90;;;;;;4988594;28;20232;-70
2023/09/05 03:29:26;;;;;;;22.17;17.67;;;15.40;99.90;;;;;;4991216;28;20689;-70
2023/09/05 03:31:54;;;;;;;24.33;18.10;;;15.40;99.90;;;;;;5016873;28;20231;-70
2023/09/05 03:34:20;;;;;;;20.75;17.35;;;15.40;99.90;;;;;;4985466;28;20260;-69
2023/09/05 03:36:47;;;;;;;24.08;17.92;;;15.40;99.90;;;;;;4986783;28;20189;-69
2023/09/05 03:39:13;;;;;;;22.50;17.33;;;15.40;99.90;;;;;;4986212;28;20268;-69
2023/09/05 03:41:39;;;;;;;22.02;17.45;;;15.30;99.90;;;;;;4986700;28;20202;-70
2023/09/05 03:44:05;;;;;;;21.80;17.73;;;15.30;99.90;;;;;;4987746;28;20193;-71
2023/09/05 03:46:31;;;;;;;22.42;17.85;;;15.30;99.90;;;;;;4992298;28;20185;-70
2023/09/05 03:48:59;;;;;;;25.33;18.80;;;15.30;99.90;;;;;;4985647;28;20649;-71
2023/09/05 03:51:27;;;;;;;21.73;17.45;;;15.30;99.90;;;;;;4987664;28;20182;-72
2023/09/05 03:53:54;;;;;;;23.05;17.77;;;15.30;99.90;;;;;;4983386;28;20611;-72
2023/09/05 03:56:21;;;;;;;25.23;17.95;;;15.30;99.90;;;;;;4992803;28;20189;-70
2023/09/05 03:58:47;;;;;;;22.45;17.80;;;15.30;99.90;;;;;;5023463;28;20305;-71
2023/09/05 04:01:14;;;;;;;27.70;17.40;;;15.30;99.90;;;;;;4993776;28;20712;-71
2023/09/05 04:03:41;;;;;;;23.98;17.85;;;15.30;99.90;;;;;;4993803;28;20268;-71
2023/09/05 04:06:07;;;;;;;24.90;17.55;;;15.30;99.90;;;;;;4991069;28;20221;-71
2023/09/05 04:08:33;;;;;;;24.67;17.55;;;15.30;99.90;;;;;;5021961;28;20189;-71
2023/09/05 04:11:00;;;;;;;26.73;18.15;;;15.30;99.90;;;;;;4995058;28;20200;-72
2023/09/05 04:13:27;;;;;;;25.05;18.25;;;15.30;99.90;;;;;;4990631;28;20896;-72
2023/09/05 04:15:53;;;;;;;23.17;18.17;;;15.30;99.90;;;;;;4991041;28;20303;-72
2023/09/05 04:18:19;;;;;;;21.63;17.48;;;15.30;99.90;;;;;;4991129;28;20213;-71
2023/09/05 04:20:45;;;;;;;24.85;18.13;;;15.20;99.90;;;;;;4994625;28;20216;-71
2023/09/05 04:23:12;;;;;;;23.95;18.65;;;15.20;99.90;;;;;;4991223;28;20613;-71
2023/09/05 04:25:40;;;;;;;25.88;18.77;;;15.20;99.90;;;;;;4990127;28;20272;-72
2023/09/05 04:28:08;;;;;;;24.70;19.23;;;15.20;99.90;;;;;;5023237;28;20207;-73
2023/09/05 04:30:34;;;;;;;28.35;19.35;;;15.20;99.90;;;;;;4988141;28;20177;-72
2023/09/05 04:33:02;;;;;;;25.10;18.65;;;15.20;99.90;;;;;;4972631;28;20190;-71
2023/09/05 04:35:29;;;;;;;23.60;18.20;;;15.10;99.90;;;;;;4987095;28;20257;-72
2023/09/05 04:37:55;;;;;;;24.20;18.98;;;15.10;99.90;;;;;;4998306;28;20228;-70
2023/09/05 04:40:22;;;;;;;26.63;18.73;;;15.10;99.90;;;;;;4990068;28;20216;-70
2023/09/05 04:42:48;;;;;;;22.05;18.58;;;15.10;99.90;;;;;;4991350;28;20190;-69
2023/09/05 04:45:14;;;;;;;24.42;18.85;;;15.10;99.90;;;;;;4989978;28;20239;-70
2023/09/05 04:47:40;;;;;;;28.02;19.17;;;15.10;99.90;;;;;;4991529;28;20206;-70
2023/09/05 04:50:08;;;;;;;28.73;20.13;;;15.00;99.90;;;;;;4988785;28;20204;-71
2023/09/05 04:52:35;;;;;;;31.25;19.98;;;15.00;99.90;;;;;;4987491;28;20196;-72
2023/09/05 04:55:02;;;;;;;33.13;20.30;;;15.00;99.90;;;;;;4989819;28;20188;-72
2023/09/05 04:57:28;;;;;;;34.63;19.77;;;15.00;99.90;;;;;;4991892;28;20277;-71
2023/09/05 04:59:59;;;;;;;30.42;19.92;;;15.00;99.90;;;;;;4993963;28;20190;-70
2023/09/05 05:02:28;;;;;;;32.92;20.27;;;15.00;99.90;;;;;;4990492;28;20181;-71
2023/09/05 05:04:55;;;;;;;33.22;20.85;;;15.00;99.90;;;;;;4985270;28;20276;-68
2023/09/05 05:07:21;;;;;;;27.25;19.60;;;15.00;99.90;;;;;;4984561;28;20225;-71
2023/09/05 05:09:47;;;;;;;33.40;20.05;;;15.10;99.90;;;;;;4992275;28;20196;-70
2023/09/05 05:12:14;;;;;;;31.05;20.27;;;15.10;99.90;;;;;;4992550;28;20216;-69
2023/09/05 05:14:40;;;;;;;32.92;20.45;;;15.00;99.90;;;;;;4989635;28;20189;-73
2023/09/05 05:17:11;;;;;;;27.13;20.15;;;15.10;99.90;;;;;;4994148;28;20598;-71
2023/09/05 05:19:37;;;;;;;30.85;19.98;;;15.10;99.90;;;;;;4987717;28;20228;-71
2023/09/05 05:22:03;;;;;;;31.27;19.50;;;15.10;99.90;;;;;;4992108;28;20193;-70
2023/09/05 05:24:29;;;;;;;34.13;19.67;;;15.10;99.90;;;;;;4989953;28;20197;-71
2023/09/05 05:26:55;;;;;;;27.92;19.67;;;15.10;99.90;;;;;;4993749;28;20193;-70
2023/09/05 05:29:21;;;;;;;26.73;20.45;;;15.20;99.90;;;;;;5019671;28;20181;-73
2023/09/05 05:31:48;;;;;;;30.75;20.27;;;15.20;99.90;;;;;;4993819;28;20190;-73
2023/09/05 05:34:15;;;;;;;24.83;19.77;;;15.20;99.90;;;;;;4986965;28;20717;-72
2023/09/05 05:36:41;;;;;;;27.38;19.27;;;15.20;99.90;;;;;;4993495;28;20267;-72
2023/09/05 05:39:07;;;;;;;34.30;20.17;;;15.20;99.90;;;;;;4987595;28;20220;-72
2023/09/05 05:41:34;;;;;;;24.80;18.73;;;15.30;99.90;;;;;;4992399;28;20243;-72
2023/09/05 05:44:00;;;;;;;24.10;18.52;;;15.30;99.90;;;;;;4985582;28;20659;-72
2023/09/05 05:46:26;;;;;;;29.20;19.40;;;15.30;99.90;;;;;;4991349;28;20197;-73
2023/09/05 05:48:52;;;;;;;26.60;19.08;;;15.40;99.90;;;;;;4990522;28;20255;-71
2023/09/05 05:51:18;;;;;;;30.30;18.98;;;15.40;99.90;;;;;;4993305;28;20212;-73
2023/09/05 05:53:44;;;;;;;29.83;19.27;;;15.50;99.90;;;;;;4989109;28;20178;-73
2023/09/05 05:56:10;;;;;;;27.00;18.58;;;15.50;99.90;;;;;;4989991;28;20212;-72
2023/09/05 05:58:36;;;;;;;28.73;19.05;;;15.60;99.90;;;;;;4986934;28;20235;-71
2023/09/05 06:01:03;;;;;;;27.92;19.58;;;15.60;99.90;;;;;;4993233;28;20594;-70
2023/09/05 06:03:29;;;;;;;28.73;19.02;;;15.70;99.90;;;;;;4985960;28;20559;-68
2023/09/05 06:05:55;;;;;;;28.33;19.70;;;15.70;99.90;;;;;;4992714;28;20284;-68
2023/09/05 06:08:22;;;;;;;26.85;18.95;;;15.80;99.90;;;;;;4987383;28;20236;-71
2023/09/05 06:10:48;;;;;;;25.50;18.88;;;15.80;99.90;;;;;;4990291;28;20232;-67
2023/09/05 06:13:15;;;;;;;26.45;18.35;;;15.90;99.90;;;;;;4988306;28;20496;-70
2023/09/05 06:15:41;;;;;;;27.25;18.52;;;15.90;99.90;;;;;;4987033;28;20675;-69
2023/09/05 06:18:08;;;;;;;24.98;18.88;;;16.00;99.90;;;;;;4976206;28;20293;-68
2023/09/05 06:20:35;;;;;;;33.33;17.45;;;16.00;99.90;;;;;;4993475;28;20249;-70
2023/09/05 06:23:02;;;;;;;32.83;17.98;;;16.10;99.90;;;;;;4993175;28;20200;-71
2023/09/05 06:25:28;;;;;;;25.35;17.05;;;16.10;99.90;;;;;;4993662;28;20184;-70
2023/09/05 06:27:54;;;;;;;25.05;17.30;;;16.20;99.90;;;;;;4986483;28;20225;-70
2023/09/05 06:30:22;;;;;;;31.13;17.38;;;16.30;99.90;;;;;;4988553;28;20193;-71
2023/09/05 06:32:49;;;;;;;24.80;17.13;;;16.30;99.90;;;;;;5002206;28;20182;-69
2023/09/05 06:35:15;;;;;;;22.83;16.70;;;16.40;99.90;;;;;;4995943;28;20284;-69
2023/09/05 06:37:42;;;;;;;19.75;16.63;;;16.40;99.90;;;;;;4985789;28;20647;-69
2023/09/05 06:40:15;;;;;;;28.00;17.30;;;16.50;99.90;;;;;;4987982;28;20193;-67
2023/09/05 06:42:41;;;;;;;19.80;16.17;;;16.60;99.90;;;;;;4997003;28;20201;-70
2023/09/05 06:45:09;;;;;;;21.42;16.75;;;16.60;99.90;;;;;;4987279;28;20193;-69
2023/09/05 06:47:35;;;;;;;23.55;16.85;;;16.70;99.90;;;;;;4986353;28;21072;-70
2023/09/05 06:50:06;;;;;;;21.23;16.42;;;16.70;99.90;;;;;;4989427;28;20193;-69
2023/09/05 06:52:32;;;;;;;21.10;16.25;;;16.80;99.90;;;;;;4990422;28;20600;-71
2023/09/05 06:54:58;;;;;;;21.58;16.60;;;16.80;99.90;;;;;;4988834;28;20209;-71
2023/09/05 06:57:25;;;;;;;25.98;18.85;;;16.90;99.90;;;;;;4987296;28;20191;-68
2023/09/05 06:59:51;;;;;;;26.27;15.60;;;17.00;99.90;;;;;;4984170;28;20246;-69
2023/09/05 07:02:18;;;;;;;21.35;15.48;;;17.00;99.90;;;;;;4997856;28;20694;-70
2023/09/05 07:04:44;;;;;;;23.95;16.30;;;17.10;99.90;;;;;;4992893;28;20254;-70
2023/09/05 07:07:10;;;;;;;23.10;16.23;;;17.20;99.90;;;;;;5037715;28;20232;-70
2023/09/05 07:09:36;;;;;;;23.95;16.80;;;17.30;99.90;;;;;;4985993;28;20184;-70
2023/09/05 07:12:04;;;;;;;25.95;15.48;;;17.30;99.90;;;;;;5006942;28;20675;-70
2023/09/05 07:14:30;;;;;;;23.55;15.60;;;17.40;99.90;;;;;;4983147;28;20577;-71
2023/09/05 07:16:56;;;;;;;23.15;16.13;;;17.50;99.90;;;;;;4988747;28;20563;-68
2023/09/05 07:19:22;;;;;;;24.85;15.93;;;17.60;99.90;;;;;;4982352;28;20229;-70
2023/09/05 07:21:49;;;;;;;21.40;16.17;;;17.70;99.90;;;;;;4988816;28;20207;-70
2023/09/05 07:24:16;;;;;;;24.05;15.52;;;17.80;99.90;;;;;;4986637;28;20178;-69
2023/09/05 07:26:42;;;;;;;21.40;15.13;;;17.80;99.90;;;;;;5002348;28;20197;-69
2023/09/05 07:29:10;;;;;;;25.23;15.77;;;17.90;99.90;;;;;;4991555;28;20253;-70
2023/09/05 07:31:38;;;;;;;25.50;15.88;;;18.00;99.90;;;;;;4992696;28;20189;-69
2023/09/05 07:34:04;;;;;;;20.23;14.82;;;18.10;99.90;;;;;;4994893;28;20189;-69
2023/09/05 07:36:31;;;;;;;20.83;15.02;;;18.20;99.90;;;;;;5005093;28;20281;-67
2023/09/05 07:38:58;;;;;;;34.60;22.00;;;18.30;99.90;;;;;;4992737;28;20200;-71
2023/09/05 07:41:24;;;;;;;20.70;15.48;;;18.40;99.90;;;;;;5007377;28;20184;-68
2023/09/05 07:43:53;;;;;;;22.92;15.30;;;18.50;99.90;;;;;;4996437;28;20189;-70
2023/09/05 07:46:19;;;;;;;24.20;15.38;;;18.60;99.90;;;;;;5007019;28;20543;-71
2023/09/05 07:48:46;;;;;;;27.88;18.27;;;18.60;99.90;;;;;;4984038;28;20189;-67
2023/09/05 07:51:12;;;;;;;23.65;14.85;;;18.70;99.90;;;;;;4995540;28;20185;-68
2023/09/05 07:53:38;;;;;;;19.50;14.35;;;18.80;99.90;;;;;;4989125;28;20233;-70
2023/09/05 07:56:04;;;;;;;19.23;14.40;;;18.90;99.90;;;;;;4985988;28;20190;-69
2023/09/05 07:58:31;;;;;;;21.70;13.73;;;18.90;99.90;;;;;;4990506;28;20292;-68
2023/09/05 08:00:57;;;;;;;24.15;14.95;;;19.10;99.90;;;;;;4994744;28;20220;-68
2023/09/05 08:03:26;;;;;;;19.23;13.18;;;19.20;99.90;;;;;;4993020;28;20223;-68
2023/09/05 08:05:56;;;;;;;18.58;13.45;;;19.30;99.90;;;;;;4992080;28;20196;-67
2023/09/05 08:08:22;;;;;;;20.48;12.70;;;19.40;99.90;;;;;;4991022;28;20217;-69
2023/09/05 08:10:48;;;;;;;17.73;12.52;;;19.50;99.90;;;;;;4987801;28;20197;-67
2023/09/05 08:13:15;;;;;;;20.65;12.45;;;19.60;99.90;;;;;;4989804;28;20665;-67
2023/09/05 08:15:43;;;;;;;15.68;12.25;;;19.60;99.90;;;;;;5008739;28;20289;-68
2023/09/05 08:18:11;;;;;;;18.05;12.07;;;19.70;99.90;;;;;;4989933;28;20229;-67
2023/09/05 08:20:39;;;;;;;17.42;12.65;;;19.80;99.90;;;;;;4993095;28;20540;-68
2023/09/05 08:23:08;;;;;;;19.48;11.98;;;19.90;99.90;;;;;;4988677;28;20198;-68
2023/09/05 08:25:34;;;;;;;18.25;11.77;;;20.00;99.90;;;;;;4992693;28;20256;-68
2023/09/05 08:28:00;;;;;;;17.15;11.60;;;20.10;99.90;;;;;;4985706;28;20196;-68
2023/09/05 08:30:28;;;;;;;16.15;10.70;;;20.20;99.90;;;;;;5025608;28;20260;-70
2023/09/05 08:33:01;;;;;;;36.83;22.38;;;20.30;99.90;;;;;;4992251;28;20242;-67
2023/09/05 08:35:27;;;;;;;30.42;17.55;;;20.40;99.90;;;;;;4987772;28;20185;-68
2023/09/05 08:37:54;;;;;;;20.77;12.02;;;20.50;99.90;;;;;;4989202;28;20241;-67
2023/09/05 08:40:20;;;;;;;20.90;10.82;;;20.50;99.90;;;;;;4992418;28;20268;-68
2023/09/05 08:42:50;;;;;;;16.52;10.02;;;20.60;99.90;;;;;;4990506;28;20186;-69
2023/09/05 08:45:22;;;;;;;14.02;9.93;;;20.70;99.90;;;;;;4986605;28;20197;-67
2023/09/05 08:47:51;;;;;;;16.02;10.00;;;20.80;99.90;;;;;;4992015;28;20178;-69
2023/09/05 08:50:17;;;;;;;17.50;10.10;;;20.90;99.90;;;;;;4988814;28;20216;-72
2023/09/05 08:52:43;;;;;;;19.85;10.65;;;21.00;99.90;;;;;;4987992;28;20208;-68
2023/09/05 08:55:11;;;;;;;22.10;9.82;;;21.10;99.90;;;;;;4981927;28;20186;-67
2023/09/05 08:57:40;;;;;;;17.45;10.40;;;21.20;99.90;;;;;;4994875;28;20185;-68
2023/09/05 09:00:07;;;;;;;16.77;9.25;;;21.30;99.90;;;;;;4987857;28;20181;-68
2023/09/05 09:02:36;;;;;;;13.60;8.70;;;21.40;99.90;;;;;;4991135;28;20556;-70
2023/09/05 09:05:02;;;;;;;12.30;8.13;;;21.50;99.90;;;;;;4992148;28;20190;-67
2023/09/05 09:07:29;;;;;;;12.25;8.88;;;21.60;99.90;;;;;;4992808;28;20233;-67
2023/09/05 09:09:59;;;;;;;13.10;8.30;;;21.70;99.90;;;;;;4991800;28;20192;-68
2023/09/05 09:12:29;;;;;;;10.07;8.23;;;21.80;99.90;;;;;;4988475;28;20190;-69
2023/09/05 09:14:56;;;;;;;11.63;7.75;;;21.90;99.90;;;;;;4986585;28;20385;-66
2023/09/05 09:17:25;;;;;;;11.50;7.25;;;22.00;99.90;;;;;;4990938;28;20224;-66
2023/09/05 09:19:54;;;;;;;9.23;7.45;;;22.10;99.90;;;;;;4991455;28;20228;-67
2023/09/05 09:22:24;;;;;;;13.65;7.18;;;22.20;99.90;;;;;;4992898;28;20184;-70
2023/09/05 09:24:51;;;;;;;12.73;6.95;;;22.20;99.90;;;;;;4988198;28;20280;-68
2023/09/05 09:27:22;;;;;;;15.50;7.00;;;22.30;99.90;;;;;;4988276;28;20594;-69
2023/09/05 09:29:54;;;;;;;11.48;6.90;;;22.40;99.90;;;;;;4990509;28;20575;-68
2023/09/05 09:32:22;;;;;;;14.35;6.93;;;22.50;99.90;;;;;;4993249;28;20320;-68
2023/09/05 09:34:49;;;;;;;10.52;7.25;;;22.60;99.90;;;;;;4992669;28;20189;-66
2023/09/05 09:37:34;;;;;;;11.35;6.30;;;22.70;99.90;;;;;;4992155;28;20188;-67
2023/09/05 09:40:02;;;;;;;8.98;6.43;;;22.70;99.90;;;;;;4986496;28;20696;-66
2023/09/05 09:42:28;;;;;;;11.48;6.43;;;22.80;99.90;;;;;;4992546;28;20235;-66
2023/09/05 09:44:55;;;;;;;11.20;5.78;;;22.90;99.90;;;;;;4990628;28;20282;-65
2023/09/05 09:47:21;;;;;;;7.50;5.53;;;23.00;99.90;;;;;;4990510;28;20553;-69
2023/09/05 09:49:49;;;;;;;12.75;6.20;;;23.00;99.90;;;;;;4987632;28;20302;-67
2023/09/05 09:52:17;;;;;;;7.40;5.70;;;23.10;99.90;;;;;;4987943;28;20187;-67
2023/09/05 09:54:47;;;;;;;6.85;5.88;;;23.20;99.90;;;;;;4988982;28;20181;-67
2023/09/05 09:57:16;;;;;;;10.57;6.82;;;23.30;99.90;;;;;;4993253;28;20193;-65
2023/09/05 09:59:48;;;;;;;7.97;5.45;;;23.40;99.90;;;;;;5007177;28;20225;-66
2023/09/05 10:02:15;;;;;;;15.43;6.72;;;23.50;99.90;;;;;;4989555;28;20213;-67
2023/09/05 10:04:43;;;;;;;13.40;6.82;;;23.50;99.90;;;;;;4988765;28;20185;-70
2023/09/05 10:07:14;;;;;;;9.45;5.90;;;23.60;99.90;;;;;;4992252;28;20221;-69
2023/09/05 10:09:43;;;;;;;9.50;6.68;;;23.60;99.90;;;;;;4986039;28;20244;-70
2023/09/05 10:12:09;;;;;;;11.00;6.63;;;23.70;99.90;;;;;;4973708;28;20189;-69
2023/09/05 10:14:38;;;;;;;11.02;6.85;;;23.80;99.90;;;;;;4987577;28;21005;-69
2023/09/05 10:17:04;;;;;;;10.48;6.72;;;23.80;99.90;;;;;;4991062;28;20213;-71
2023/09/05 10:19:32;;;;;;;7.40;6.25;;;23.90;99.90;;;;;;4985528;28;20279;-72
2023/09/05 10:21:59;;;;;;;8.55;5.90;;;24.00;99.90;;;;;;4987192;28;20239;-70
2023/09/05 10:24:28;;;;;;;8.80;4.90;;;24.00;99.90;;;;;;5018505;28;20719;-68
2023/09/05 10:26:55;;;;;;;7.30;4.68;;;24.10;99.90;;;;;;4982529;28;20574;-68
2023/09/05 10:29:43;;;;;;;10.20;4.65;;;24.20;99.90;;;;;;4989759;28;20239;-68
2023/09/05 10:32:14;;;;;;;6.03;4.80;;;24.30;99.90;;;;;;4987515;28;20224;-65
2023/09/05 10:34:50;;;;;;;11.52;4.63;;;24.40;99.90;;;;;;4986760;28;20259;-65
2023/09/05 10:37:23;;;;;;;11.05;4.70;;;24.40;99.90;;;;;;4992032;28;20196;-69
2023/09/05 10:39:54;;;;;;;7.97;4.88;;;24.50;99.90;;;;;;4987364;28;20707;-68
2023/09/05 10:42:28;;;;;;;9.15;5.25;;;24.60;99.90;;;;;;4990333;28;20256;-71
2023/09/05 10:44:55;;;;;;;8.50;4.75;;;24.70;99.90;;;;;;4987384;28;20184;-70
2023/09/05 10:47:33;;;;;;;6.00;4.50;;;24.70;99.90;;;;;;5014748;28;20220;-70
2023/09/05 10:50:07;;;;;;;8.68;4.50;;;24.80;99.90;;;;;;4989770;28;20275;-71
2023/09/05 10:52:34;;;;;;;9.85;4.43;;;24.90;99.90;;;;;;4990433;28;20243;-71
2023/09/05 10:55:29;;;;;;;7.20;4.18;;;25.00;99.90;;;;;;4987730;28;20212;-69
2023/09/05 10:57:56;;;;;;;8.20;5.13;;;25.00;99.90;;;;;;4983226;28;20228;-68
2023/09/05 11:00:28;;;;;;;7.93;4.53;;;25.10;99.90;;;;;;4986479;28;20190;-70
2023/09/05 11:03:12;;;;;;;6.00;4.25;;;25.10;99.90;;;;;;4984690;28;20186;-70
2023/09/05 11:05:40;;;;;;;6.38;3.42;;;25.20;99.90;;;;;;4992280;28;20268;-68
2023/09/05 11:08:21;;;;;;;9.07;3.85;;;25.20;99.90;;;;;;4991245;28;20233;-68
2023/09/05 11:10:50;;;;;;;10.88;3.70;;;25.30;99.90;;;;;;4987579;28;20199;-70
2023/09/05 11:13:16;;;;;;;5.57;3.58;;;25.40;99.90;;;;;;4983974;28;20193;-70
2023/09/05 11:15:44;;;;;;;7.57;3.58;;;25.50;99.90;;;;;;4991389;28;20189;-69
2023/09/05 11:18:12;;;;;;;7.78;3.58;;;25.60;99.90;;;;;;4989418;28;20237;-69
2023/09/05 11:20:40;;;;;;;5.75;3.50;;;25.60;99.90;;;;;;4995179;28;20214;-68
2023/09/05 11:23:15;;;;;;;8.27;3.83;;;25.70;99.90;;;;;;5005113;28;20235;-68
2023/09/05 11:25:53;;;;;;;7.55;3.28;;;25.80;99.90;;;;;;4989382;28;20189;-67
2023/09/05 11:28:22;;;;;;;8.23;3.58;;;25.80;99.90;;;;;;4989407;28;20260;-72
2023/09/05 11:31:03;;;;;;;5.97;3.30;;;25.90;99.90;;;;;;4989286;28;20197;-69
2023/09/05 11:33:29;;;;;;;7.72;3.00;;;25.90;99.90;;;;;;4990620;28;20181;-68
2023/09/05 11:35:55;;;;;;;11.38;3.05;;;26.00;99.90;;;;;;4995757;28;20200;-69
2023/09/05 11:38:23;;;;;;;7.57;3.22;;;26.00;99.90;;;;;;4975620;28;20550;-68
2023/09/05 11:40:52;;;;;;;8.25;3.25;;;26.10;99.90;;;;;;5020036;28;20174;-68
2023/09/05 11:43:19;;;;;;;4.97;2.97;;;26.20;99.90;;;;;;4993076;28;20657;-69
2023/09/05 11:45:48;;;;;;;5.32;2.88;;;26.20;99.90;;;;;;4995105;28;20263;-70
2023/09/05 11:48:19;;;;;;;9.40;3.00;;;26.30;99.40;;;;;;4982896;28;20653;-68
2023/09/05 11:50:49;;;;;;;8.45;2.72;;;26.30;99.10;;;;;;4989296;28;20193;-68
2023/09/05 11:53:18;;;;;;;5.90;2.88;;;26.40;98.80;;;;;;4985283;28;20181;-69
2023/09/05 11:55:45;;;;;;;7.15;3.22;;;26.50;98.40;;;;;;4990734;28;20189;-68
2023/09/05 11:58:15;;;;;;;8.77;3.17;;;26.50;97.90;;;;;;4991443;28;20583;-72
2023/09/05 12:00:43;;;;;;;7.72;3.03;;;26.60;97.80;;;;;;5004871;28;20312;-69
2023/09/05 12:03:09;;;;;;;4.75;2.80;;;26.60;97.50;;;;;;4988807;28;20193;-68
2023/09/05 12:05:37;;;;;;;4.55;2.55;;;26.70;97.30;;;;;;5003030;28;20204;-68
2023/09/05 12:08:06;;;;;;;2.88;2.53;;;26.70;96.40;;;;;;4992660;28;20244;-65
2023/09/05 12:11:03;;;;;;;3.17;2.35;;;26.80;96.20;;;;;;4991630;28;20526;-68
2023/09/05 12:13:45;;;;;;;4.47;2.60;;;26.90;95.80;;;;;;4991307;28;20196;-67
2023/09/05 12:16:17;;;;;;;3.88;2.30;;;26.90;95.50;;;;;;4990378;28;20680;-67
2023/09/05 12:18:43;;;;;;;5.70;2.38;;;26.90;95.40;;;;;;4991679;28;20339;-68
2023/09/05 12:21:09;;;;;;;4.07;2.53;;;27.00;95.20;;;;;;4991516;28;20217;-68
2023/09/05 12:23:35;;;;;;;5.70;2.80;;;27.00;95.30;;;;;;5023474;28;20192;-68
2023/09/05 12:26:02;;;;;;;4.45;2.63;;;27.10;94.70;;;;;;5000487;28;20196;-68
2023/09/05 12:28:30;;;;;;;4.22;3.03;;;27.20;94.90;;;;;;4991929;28;20270;-68
2023/09/05 12:31:17;;;;;;;8.15;2.80;;;27.20;95.40;;;;;;4990868;28;20173;-71
2023/09/05 12:33:43;;;;;;;7.85;2.97;;;27.30;95.90;;;;;;4984996;28;20195;-69